Westerville, Iowa
Current Conditions -  °F | °C
As of 6:53 AM on Saturday 25 Oct 2014 (Local Time) from KLWD Reporting Station
NA  
Wind Chill: 51°   Ceiling: NA
Heat Index: 51°   Visibility: 10mi
Dew Point: 49°   Wind: 6mph
Humidity: 92%   Direction: 340°NNW
Pressure: 30.03"   Gusts: NA
Location:  40.8106°N, 93.9578°W
Report Text: KLWD 251153Z AUTO 34005KT 10SM 11/09 A3003 RMK AO2 SLP168 T01060094 10128 20100 53006 $
Loading
Personal Weather Stations






























Interactive Weather Map
Tropical Storm Tracking
New forecast layout! Learn more

10-Day Weather Forecast

Advertisements
Track Severe Weather on mobile